createdAt,value
2022-12-29T00:00:14.359Z,10.28
2022-12-29T00:02:40.904Z,10.26
2022-12-29T00:05:07.996Z,10.30
2022-12-29T00:07:34.570Z,10.31
2022-12-29T00:10:00.927Z,10.30
2022-12-29T00:12:47.535Z,10.31
2022-12-29T00:15:32.914Z,10.35
2022-12-29T00:17:59.279Z,10.36
2022-12-29T00:20:44.078Z,10.39
2022-12-29T00:23:28.873Z,10.42
2022-12-29T00:26:14.765Z,10.41
2022-12-29T00:28:59.471Z,10.48
2022-12-29T00:31:44.577Z,10.51
2022-12-29T00:34:47.436Z,10.50
2022-12-29T00:37:14.113Z,10.54
2022-12-29T00:39:59.288Z,10.52
2022-12-29T00:42:44.157Z,10.53
2022-12-29T00:45:10.544Z,10.54
2022-12-29T00:47:36.960Z,10.58
2022-12-29T00:50:03.693Z,10.58
2022-12-29T00:52:30.101Z,10.61
2022-12-29T00:54:56.462Z,10.65
2022-12-29T00:57:22.821Z,10.66
2022-12-29T00:59:49.190Z,10.65
2022-12-29T01:02:15.680Z,10.62
2022-12-29T01:04:42.185Z,10.60
2022-12-29T01:07:08.626Z,10.63
2022-12-29T01:09:53.707Z,10.57
2022-12-29T01:12:40.197Z,10.53
2022-12-29T01:15:08.687Z,10.52
2022-12-29T01:17:35.132Z,10.52
2022-12-29T01:20:02.280Z,10.49
2022-12-29T01:22:28.914Z,10.45
2022-12-29T01:24:55.276Z,10.36
2022-12-29T01:27:21.700Z,10.31
2022-12-29T01:29:48.062Z,10.26
2022-12-29T01:32:14.478Z,10.21
2022-12-29T01:34:40.889Z,10.14
2022-12-29T01:37:07.532Z,10.09
2022-12-29T01:39:33.909Z,10.05
2022-12-29T01:42:00.913Z,10.02
2022-12-29T01:44:57.481Z,9.99
2022-12-29T01:47:31.598Z,9.97
2022-12-29T01:50:02.564Z,9.94
2022-12-29T01:52:33.227Z,9.91
2022-12-29T01:55:02.063Z,9.88
2022-12-29T01:57:34.354Z,9.86
2022-12-29T02:00:12.816Z,9.86
2022-12-29T02:02:40.047Z,9.85
2022-12-29T02:05:14.710Z,9.86
2022-12-29T02:07:43.211Z,9.85
2022-12-29T02:10:09.643Z,9.85
2022-12-29T02:12:36.189Z,9.90
2022-12-29T02:15:04.805Z,9.91
2022-12-29T02:17:54.156Z,9.91
2022-12-29T02:20:51.463Z,9.90
2022-12-29T02:23:30.105Z,9.92
2022-12-29T02:26:23.285Z,9.92
2022-12-29T02:29:22.026Z,9.90
2022-12-29T02:32:04.847Z,9.87
2022-12-29T02:34:52.587Z,9.86
2022-12-29T02:37:18.911Z,9.86
2022-12-29T02:39:56.736Z,9.87
2022-12-29T02:43:04.741Z,9.83
2022-12-29T02:45:56.237Z,9.86
2022-12-29T02:48:33.388Z,9.89
2022-12-29T02:51:04.311Z,9.89
2022-12-29T02:53:52.502Z,9.87
2022-12-29T02:56:18.904Z,9.86
2022-12-29T02:58:45.546Z,9.89
2022-12-29T03:01:29.303Z,9.90
2022-12-29T03:04:12.151Z,9.91
2022-12-29T03:06:57.985Z,9.89
2022-12-29T03:09:36.315Z,9.94
2022-12-29T03:12:50.104Z,9.93
2022-12-29T03:15:44.079Z,9.91
2022-12-29T03:18:16.389Z,9.89
2022-12-29T03:21:07.764Z,9.80
2022-12-29T03:23:36.006Z,9.73
2022-12-29T03:26:07.864Z,9.74
2022-12-29T03:28:39.929Z,9.75
2022-12-29T03:31:09.139Z,9.78
2022-12-29T03:33:39.234Z,9.77
2022-12-29T03:36:09.683Z,9.70
2022-12-29T03:38:43.329Z,9.63
2022-12-29T03:41:15.294Z,9.57
2022-12-29T03:43:42.132Z,9.47
2022-12-29T03:46:08.549Z,9.48
2022-12-29T03:48:34.990Z,9.50
2022-12-29T03:51:01.419Z,9.49
2022-12-29T03:53:27.901Z,9.45
2022-12-29T03:55:54.362Z,9.44
2022-12-29T03:58:20.816Z,9.40
2022-12-29T04:00:48.509Z,9.36
2022-12-29T04:03:14.902Z,9.34
2022-12-29T04:05:41.323Z,9.34
2022-12-29T04:08:07.752Z,9.32
2022-12-29T04:10:34.342Z,9.32
2022-12-29T04:13:00.831Z,9.34
2022-12-29T04:15:27.421Z,9.37
2022-12-29T04:17:53.926Z,9.33
2022-12-29T04:20:39.003Z,9.35
2022-12-29T04:23:06.989Z,9.36
2022-12-29T04:25:34.220Z,9.38
2022-12-29T04:28:00.981Z,9.42
2022-12-29T04:30:27.422Z,9.46
2022-12-29T04:32:54.753Z,9.48
2022-12-29T04:35:21.164Z,9.49
2022-12-29T04:37:47.593Z,9.48
2022-12-29T04:40:14.039Z,9.47
2022-12-29T04:42:41.083Z,9.48
2022-12-29T04:45:08.185Z,9.51
2022-12-29T04:47:34.715Z,9.47
2022-12-29T04:50:01.178Z,9.48
2022-12-29T04:52:27.595Z,9.45
2022-12-29T04:54:54.080Z,9.46
2022-12-29T04:57:20.662Z,9.46
2022-12-29T04:59:47.106Z,9.44
2022-12-29T05:02:13.589Z,9.43
2022-12-29T05:04:40.886Z,9.43
2022-12-29T05:07:07.275Z,9.37
2022-12-29T05:09:33.908Z,9.33
2022-12-29T05:12:00.518Z,9.37
2022-12-29T05:14:27.119Z,9.41
2022-12-29T05:16:53.559Z,9.40
2022-12-29T05:19:20.049Z,9.42
2022-12-29T05:21:46.418Z,9.45
2022-12-29T05:24:12.953Z,9.43
2022-12-29T05:26:39.308Z,9.40
2022-12-29T05:29:05.684Z,9.38
2022-12-29T05:31:32.182Z,9.42
2022-12-29T05:33:58.649Z,9.40
2022-12-29T05:36:25.044Z,9.38
2022-12-29T05:38:51.433Z,9.36
2022-12-29T05:41:17.855Z,9.36
2022-12-29T05:43:44.706Z,9.39
2022-12-29T05:46:11.592Z,9.39
2022-12-29T05:48:38.469Z,9.37
2022-12-29T05:51:05.197Z,9.36
2022-12-29T05:53:31.572Z,9.35
2022-12-29T05:55:57.997Z,9.36
2022-12-29T05:58:24.454Z,9.33
2022-12-29T06:00:51.517Z,9.33
2022-12-29T06:03:18.041Z,9.33
2022-12-29T06:05:47.002Z,9.28
2022-12-29T06:08:13.805Z,9.28
2022-12-29T06:10:40.859Z,9.32
2022-12-29T06:13:07.429Z,9.31
2022-12-29T06:15:34.940Z,9.21
2022-12-29T06:18:01.511Z,9.14
2022-12-29T06:20:27.968Z,9.08
2022-12-29T06:22:54.359Z,9.06
2022-12-29T06:25:20.947Z,9.04
2022-12-29T06:27:47.443Z,9.00
2022-12-29T06:30:14.200Z,9.00
2022-12-29T06:32:40.727Z,8.98
2022-12-29T06:35:07.474Z,8.94
2022-12-29T06:37:33.873Z,8.87
2022-12-29T06:40:00.315Z,8.77
2022-12-29T06:42:26.755Z,8.73
2022-12-29T06:44:53.363Z,8.67
2022-12-29T06:47:19.806Z,8.66
2022-12-29T06:49:46.237Z,8.64
2022-12-29T06:52:13.317Z,8.64
2022-12-29T06:54:40.763Z,8.65
2022-12-29T06:57:07.431Z,8.65
2022-12-29T06:59:34.036Z,8.63
2022-12-29T07:02:01.547Z,8.68
2022-12-29T07:04:28.032Z,8.71
2022-12-29T07:06:54.664Z,8.73
2022-12-29T07:09:21.027Z,8.78
2022-12-29T07:11:47.434Z,8.81
2022-12-29T07:14:14.037Z,8.76
2022-12-29T07:16:40.683Z,8.68
2022-12-29T07:19:07.157Z,8.60
2022-12-29T07:21:33.672Z,8.50
2022-12-29T07:24:00.294Z,8.44
2022-12-29T07:26:30.290Z,8.38
2022-12-29T07:29:01.496Z,8.31
2022-12-29T07:31:27.928Z,8.20
2022-12-29T07:33:55.286Z,8.12
2022-12-29T07:36:21.938Z,8.06
2022-12-29T07:38:48.380Z,8.03
2022-12-29T07:41:14.784Z,7.98
2022-12-29T07:43:41.255Z,8.00
2022-12-29T07:46:14.548Z,8.04
2022-12-29T07:48:56.254Z,8.04
2022-12-29T07:51:22.634Z,8.07
2022-12-29T07:53:49.748Z,8.11
2022-12-29T07:56:16.155Z,8.15
2022-12-29T07:58:43.117Z,8.21
2022-12-29T08:01:09.509Z,8.23
2022-12-29T08:03:37.327Z,8.28
2022-12-29T08:06:03.967Z,8.29
2022-12-29T08:08:30.397Z,8.33
2022-12-29T08:10:56.780Z,8.35
2022-12-29T08:13:23.212Z,8.44
2022-12-29T08:15:50.398Z,8.43
2022-12-29T08:18:16.806Z,8.48
2022-12-29T08:20:43.185Z,8.56
2022-12-29T08:23:09.681Z,8.60
2022-12-29T08:25:36.256Z,8.62
2022-12-29T08:28:02.996Z,8.63
2022-12-29T08:30:29.353Z,8.65
2022-12-29T08:32:55.744Z,8.66
2022-12-29T08:35:22.184Z,8.72
2022-12-29T08:37:48.564Z,8.78
2022-12-29T08:40:14.965Z,8.81
2022-12-29T08:42:41.342Z,8.86
2022-12-29T08:45:09.568Z,8.87
2022-12-29T08:47:36.582Z,8.92
2022-12-29T08:50:03.770Z,8.93
2022-12-29T08:52:30.207Z,8.96
2022-12-29T08:54:56.612Z,8.95
2022-12-29T08:57:23.252Z,8.98
2022-12-29T08:59:50.196Z,8.99
2022-12-29T09:02:23.713Z,8.98
2022-12-29T09:04:51.294Z,9.00
2022-12-29T09:07:17.706Z,9.02
2022-12-29T09:09:44.217Z,9.04
2022-12-29T09:12:10.688Z,9.04
2022-12-29T09:14:37.098Z,9.08
2022-12-29T09:17:22.282Z,9.12
2022-12-29T09:19:48.713Z,9.19
2022-12-29T09:22:15.168Z,9.17
2022-12-29T09:24:41.560Z,9.15
2022-12-29T09:27:07.959Z,9.13
2022-12-29T09:29:34.328Z,9.06
2022-12-29T09:32:00.943Z,9.00
2022-12-29T09:34:27.508Z,9.00
2022-12-29T09:36:53.907Z,8.93
2022-12-29T09:39:20.326Z,8.84
2022-12-29T09:42:17.632Z,8.76
2022-12-29T09:45:07.434Z,8.74
2022-12-29T09:47:33.881Z,8.69
2022-12-29T09:50:06.278Z,8.61
2022-12-29T09:52:38.524Z,8.56
2022-12-29T09:55:15.522Z,8.52
2022-12-29T09:57:50.703Z,8.51
2022-12-29T10:00:38.610Z,8.52
2022-12-29T10:03:20.350Z,8.53
2022-12-29T10:05:51.734Z,8.51
2022-12-29T10:08:41.397Z,8.51
2022-12-29T10:11:35.714Z,8.51
2022-12-29T10:14:20.387Z,8.51
2022-12-29T10:17:11.137Z,8.50
2022-12-29T10:20:08.243Z,8.50
2022-12-29T10:22:55.951Z,8.48
2022-12-29T10:25:31.138Z,8.48
2022-12-29T10:28:02.985Z,8.48
2022-12-29T10:30:29.911Z,8.53
2022-12-29T10:33:01.508Z,8.58
2022-12-29T10:35:35.000Z,8.55
2022-12-29T10:38:24.921Z,8.52
2022-12-29T10:41:09.824Z,8.52
2022-12-29T10:43:43.139Z,8.58
2022-12-29T10:46:19.087Z,8.62
2022-12-29T10:48:47.726Z,8.62
2022-12-29T10:51:28.775Z,8.59
2022-12-29T10:54:06.470Z,8.60
2022-12-29T10:56:41.316Z,8.66
2022-12-29T10:59:20.048Z,8.68
2022-12-29T11:01:59.029Z,8.70
2022-12-29T11:04:50.466Z,8.72
2022-12-29T11:07:25.043Z,8.75
2022-12-29T11:09:53.724Z,8.72
2022-12-29T11:12:27.738Z,8.71
2022-12-29T11:15:14.044Z,8.71
2022-12-29T11:17:48.718Z,8.70
2022-12-29T11:20:32.526Z,8.70
2022-12-29T11:22:59.805Z,8.71
2022-12-29T11:25:26.808Z,8.77
2022-12-29T11:28:13.563Z,8.80
2022-12-29T11:30:39.959Z,8.86
2022-12-29T11:33:07.153Z,9.03
2022-12-29T11:35:45.093Z,9.18
2022-12-29T11:38:25.941Z,9.20
2022-12-29T11:40:52.789Z,9.17
2022-12-29T11:43:44.084Z,9.20
2022-12-29T11:46:24.704Z,9.16
2022-12-29T11:48:51.346Z,9.12
2022-12-29T11:51:25.617Z,9.13
2022-12-29T11:53:59.335Z,9.24
2022-12-29T11:56:43.427Z,9.36
2022-12-29T11:59:44.434Z,9.26
2022-12-29T12:02:28.511Z,9.19
2022-12-29T12:05:02.673Z,9.18
2022-12-29T12:07:44.303Z,9.21
2022-12-29T12:10:20.979Z,9.13
2022-12-29T12:13:04.623Z,9.03
2022-12-29T12:15:45.899Z,8.98
2022-12-29T12:18:27.690Z,8.95
2022-12-29T12:21:06.788Z,8.86
2022-12-29T12:23:45.636Z,8.77
2022-12-29T12:26:16.887Z,8.72
2022-12-29T12:28:53.766Z,8.70
2022-12-29T12:31:27.327Z,8.74
2022-12-29T12:34:03.706Z,8.74
2022-12-29T12:36:48.617Z,8.74
2022-12-29T12:39:41.547Z,8.70
2022-12-29T12:42:27.910Z,8.68
2022-12-29T12:45:37.205Z,8.68
2022-12-29T12:48:28.923Z,8.70
2022-12-29T12:51:13.824Z,8.78
2022-12-29T12:54:02.484Z,8.88
2022-12-29T12:57:02.958Z,8.93
2022-12-29T12:59:43.283Z,9.04
2022-12-29T13:02:18.844Z,9.09
2022-12-29T13:04:56.046Z,9.12
2022-12-29T13:07:22.528Z,9.16
2022-12-29T13:09:58.579Z,9.19
2022-12-29T13:12:35.207Z,9.20
2022-12-29T13:15:16.884Z,9.16
2022-12-29T13:18:01.976Z,9.15
2022-12-29T13:20:33.386Z,9.16
2022-12-29T13:23:20.071Z,9.15
2022-12-29T13:26:05.512Z,9.14
2022-12-29T13:28:42.411Z,9.12
2022-12-29T13:31:25.105Z,9.10
2022-12-29T13:34:14.862Z,9.09
2022-12-29T13:37:01.985Z,9.06
2022-12-29T13:39:45.427Z,9.03
2022-12-29T13:42:13.501Z,9.02
2022-12-29T13:44:46.137Z,9.02
2022-12-29T13:47:27.709Z,9.03
2022-12-29T13:49:55.412Z,9.03
2022-12-29T13:52:43.381Z,9.03
2022-12-29T13:55:30.605Z,9.03
2022-12-29T13:58:15.880Z,9.03
2022-12-29T14:01:03.569Z,9.01
2022-12-29T14:03:48.962Z,9.02
2022-12-29T14:06:27.569Z,9.03
2022-12-29T14:08:57.873Z,9.02
2022-12-29T14:11:32.055Z,9.01
2022-12-29T14:13:59.217Z,8.96
2022-12-29T14:16:31.831Z,8.89
2022-12-29T14:19:07.201Z,8.81
2022-12-29T14:21:34.499Z,8.72
2022-12-29T14:24:39.701Z,8.65
2022-12-29T14:27:12.112Z,8.57
2022-12-29T14:29:41.521Z,8.52
2022-12-29T14:32:26.287Z,8.47
2022-12-29T14:34:54.540Z,8.42
2022-12-29T14:37:29.484Z,8.36
2022-12-29T14:40:16.308Z,8.32
2022-12-29T14:42:43.398Z,8.29
2022-12-29T14:45:29.646Z,8.20
2022-12-29T14:47:56.895Z,8.15
2022-12-29T14:50:24.443Z,8.10
2022-12-29T14:53:04.164Z,8.06
2022-12-29T14:55:58.242Z,8.03
2022-12-29T14:58:30.833Z,8.00
2022-12-29T15:00:59.053Z,7.99
2022-12-29T15:03:37.306Z,8.00
2022-12-29T15:06:13.962Z,8.00
2022-12-29T15:08:55.572Z,7.99
2022-12-29T15:11:38.810Z,7.98
2022-12-29T15:14:32.986Z,7.97
2022-12-29T15:16:59.708Z,7.94
2022-12-29T15:19:27.714Z,7.96
2022-12-29T15:21:57.913Z,7.98
2022-12-29T15:24:24.843Z,7.99
2022-12-29T15:26:53.731Z,7.97
2022-12-29T15:29:44.445Z,8.02
2022-12-29T15:32:22.900Z,8.04
2022-12-29T15:34:55.343Z,8.05
2022-12-29T15:37:25.255Z,8.04
2022-12-29T15:39:56.101Z,8.06
2022-12-29T15:42:28.611Z,8.04
2022-12-29T15:45:09.355Z,8.05
2022-12-29T15:47:36.757Z,8.08
2022-12-29T15:50:22.036Z,8.11
2022-12-29T15:52:48.887Z,8.11
2022-12-29T15:55:36.534Z,8.11
2022-12-29T15:58:06.149Z,8.12
2022-12-29T16:00:38.496Z,8.13
2022-12-29T16:03:12.297Z,8.13
2022-12-29T16:05:40.914Z,8.13
2022-12-29T16:08:38.238Z,8.13
2022-12-29T16:11:27.718Z,8.11
2022-12-29T16:13:55.953Z,8.12
2022-12-29T16:16:37.206Z,8.13
2022-12-29T16:19:25.516Z,8.12
2022-12-29T16:21:52.353Z,8.12
2022-12-29T16:24:22.120Z,8.13
2022-12-29T16:26:51.804Z,8.10
2022-12-29T16:29:21.873Z,8.11
2022-12-29T16:32:03.601Z,8.10
2022-12-29T16:34:42.999Z,8.05
2022-12-29T16:37:30.247Z,8.03
2022-12-29T16:39:56.745Z,7.98
2022-12-29T16:42:51.241Z,7.99
2022-12-29T16:45:24.475Z,7.99
2022-12-29T16:48:06.174Z,7.98
2022-12-29T16:50:34.964Z,7.95
2022-12-29T16:53:01.369Z,7.90
2022-12-29T16:55:27.845Z,7.83
2022-12-29T16:57:57.323Z,7.77
2022-12-29T17:00:30.144Z,7.71
2022-12-29T17:03:01.942Z,7.66
2022-12-29T17:05:28.868Z,7.57
2022-12-29T17:07:55.946Z,7.53
2022-12-29T17:10:42.269Z,7.47
2022-12-29T17:13:09.135Z,7.43
2022-12-29T17:15:35.736Z,7.38
2022-12-29T17:18:02.310Z,7.33
2022-12-29T17:20:30.611Z,7.28
2022-12-29T17:22:59.069Z,7.23
2022-12-29T17:25:36.357Z,7.19
2022-12-29T17:28:19.448Z,7.16
2022-12-29T17:30:45.975Z,7.18
2022-12-29T17:33:18.614Z,7.14
2022-12-29T17:35:47.444Z,7.14
2022-12-29T17:38:23.748Z,7.17
2022-12-29T17:40:50.698Z,7.16
2022-12-29T17:43:17.953Z,7.13
2022-12-29T17:45:45.969Z,7.10
2022-12-29T17:48:14.495Z,7.07
2022-12-29T17:50:41.574Z,7.04
2022-12-29T17:53:13.735Z,7.02
2022-12-29T17:55:41.536Z,7.00
2022-12-29T17:58:16.932Z,7.00
2022-12-29T18:00:43.467Z,7.01
2022-12-29T18:03:16.798Z,6.99
2022-12-29T18:05:43.875Z,6.97
2022-12-29T18:08:12.114Z,6.93
2022-12-29T18:10:39.904Z,6.87
2022-12-29T18:13:07.061Z,6.86
2022-12-29T18:15:36.264Z,6.83
2022-12-29T18:18:11.864Z,6.77
2022-12-29T18:20:39.217Z,6.75
2022-12-29T18:23:05.975Z,6.76
2022-12-29T18:26:03.570Z,6.78
2022-12-29T18:28:30.242Z,6.78
2022-12-29T18:30:58.577Z,6.72
2022-12-29T18:33:26.780Z,6.70
2022-12-29T18:36:02.315Z,6.67
2022-12-29T18:38:29.748Z,6.66
2022-12-29T18:40:57.645Z,6.65
2022-12-29T18:43:24.383Z,6.64
2022-12-29T18:45:50.861Z,6.62
2022-12-29T18:48:19.567Z,6.59
2022-12-29T18:50:47.321Z,6.58
2022-12-29T18:53:24.667Z,6.58
2022-12-29T18:55:52.665Z,6.61
2022-12-29T18:58:19.628Z,6.61
2022-12-29T19:00:46.944Z,6.61
2022-12-29T19:03:15.753Z,6.62
2022-12-29T19:05:43.992Z,6.59
2022-12-29T19:08:11.409Z,6.57
2022-12-29T19:10:38.869Z,6.63
2022-12-29T19:13:05.982Z,6.66
2022-12-29T19:15:35.409Z,6.63
2022-12-29T19:20:53.837Z,6.65
2022-12-29T19:23:23.089Z,6.65
2022-12-29T19:25:49.896Z,6.61
2022-12-29T19:28:25.388Z,6.63
2022-12-29T19:30:55.243Z,6.62
2022-12-29T19:33:23.807Z,6.66
2022-12-29T19:35:51.459Z,6.69
2022-12-29T19:38:18.529Z,6.67
2022-12-29T19:40:48.122Z,6.61
2022-12-29T19:43:15.246Z,6.65
2022-12-29T19:45:44.783Z,6.62
2022-12-29T19:48:15.653Z,6.59
2022-12-29T19:50:42.538Z,6.57
2022-12-29T19:53:09.080Z,6.53
2022-12-29T19:55:35.657Z,6.53
2022-12-29T19:58:02.067Z,6.52
2022-12-29T20:00:28.562Z,6.51
2022-12-29T20:02:55.013Z,6.46
2022-12-29T20:05:21.498Z,6.42
2022-12-29T20:07:48.062Z,6.39
2022-12-29T20:10:14.543Z,6.39
2022-12-29T20:12:40.957Z,6.38
2022-12-29T20:15:09.390Z,6.34
2022-12-29T20:18:10.827Z,6.32
2022-12-29T20:20:22.425Z,6.33
2022-12-29T20:22:48.808Z,6.31
2022-12-29T20:28:02.428Z,6.25
2022-12-29T20:30:28.862Z,6.25
2022-12-29T20:32:55.208Z,6.26
2022-12-29T20:35:21.628Z,6.20
2022-12-29T20:37:48.074Z,6.19
2022-12-29T20:40:14.510Z,6.21
2022-12-29T20:42:40.991Z,6.20
2022-12-29T20:45:07.631Z,6.24
2022-12-29T20:47:34.026Z,6.30
2022-12-29T20:50:00.389Z,6.34
2022-12-29T20:52:27.049Z,6.38
2022-12-29T20:54:53.490Z,6.47
2022-12-29T20:57:20.134Z,6.50
2022-12-29T20:59:46.569Z,6.55
2022-12-29T21:02:22.932Z,6.57
2022-12-29T21:07:35.928Z,6.66
2022-12-29T21:10:02.333Z,6.69
2022-12-29T21:12:28.719Z,6.72
2022-12-29T21:14:55.100Z,6.75
2022-12-29T21:17:21.532Z,6.74
2022-12-29T21:19:47.969Z,6.76
2022-12-29T21:22:14.360Z,6.77
2022-12-29T21:24:40.929Z,6.75
2022-12-29T21:27:07.395Z,6.72
2022-12-29T21:29:33.808Z,6.72
2022-12-29T21:32:06.538Z,6.70
2022-12-29T21:34:34.412Z,6.65
2022-12-29T21:37:00.942Z,6.57
2022-12-29T21:39:27.601Z,6.52
2022-12-29T21:41:59.857Z,6.49
2022-12-29T21:44:45.894Z,6.45
2022-12-29T21:47:12.419Z,6.40
2022-12-29T21:49:38.825Z,6.32
2022-12-29T21:52:05.369Z,6.29
2022-12-29T21:54:50.283Z,6.23
2022-12-29T21:57:37.735Z,6.24
2022-12-29T22:00:27.755Z,6.22
2022-12-29T22:03:22.116Z,6.16
2022-12-29T22:06:08.567Z,6.14
2022-12-29T22:08:53.374Z,6.14
2022-12-29T22:11:38.258Z,6.08
2022-12-29T22:14:06.256Z,6.05
2022-12-29T22:16:32.896Z,6.05
2022-12-29T22:18:59.314Z,6.03
2022-12-29T22:21:25.789Z,6.01
2022-12-29T22:23:52.159Z,5.99
2022-12-29T22:26:18.541Z,5.97
2022-12-29T22:28:46.247Z,5.90
2022-12-29T22:31:28.960Z,5.88
2022-12-29T22:34:01.025Z,5.87
2022-12-29T22:36:28.862Z,5.80
2022-12-29T22:38:55.413Z,5.78
2022-12-29T22:41:22.515Z,5.78
2022-12-29T22:43:48.961Z,5.82
2022-12-29T22:46:15.392Z,5.82
2022-12-29T22:48:41.857Z,5.81
2022-12-29T22:51:08.270Z,5.80
2022-12-29T22:53:34.714Z,5.79
2022-12-29T22:56:05.756Z,5.71
2022-12-29T22:58:32.183Z,5.69
2022-12-29T23:00:58.801Z,5.70
2022-12-29T23:03:25.329Z,5.63
2022-12-29T23:06:02.650Z,5.58
2022-12-29T23:08:32.484Z,5.57
2022-12-29T23:10:59.176Z,5.57
2022-12-29T23:13:25.577Z,5.56
2022-12-29T23:15:52.061Z,5.62
2022-12-29T23:18:18.469Z,5.60
2022-12-29T23:20:47.582Z,5.53
2022-12-29T23:23:14.226Z,5.53
2022-12-29T23:25:40.675Z,5.54
2022-12-29T23:28:08.700Z,5.52
2022-12-29T23:30:35.392Z,5.52
2022-12-29T23:33:01.887Z,5.53
2022-12-29T23:35:28.315Z,5.60
2022-12-29T23:37:54.681Z,5.58
2022-12-29T23:40:21.043Z,5.52
2022-12-29T23:42:47.470Z,5.52
2022-12-29T23:45:13.850Z,5.52
2022-12-29T23:47:40.233Z,5.46
2022-12-29T23:50:08.621Z,5.43
2022-12-29T23:52:35.069Z,5.47
2022-12-29T23:55:01.483Z,5.49
2022-12-29T23:57:27.911Z,5.45
2022-12-29T23:59:54.284Z,5.38
